Billings, MT

5:13 PM MDT on September 30, 2014 (GMT -0600)
Billings Logan International | Change Station
CLOSE
Current Station
Airport
Location: Billings,
Elevation: 3570 ft
Nearby Weather Stations

Elev 3570 ft 45.81 °N, 108.54 °W | Updated 20 minutes ago

Overcast
Overcast
63 °F
Feels Like 63 °F
N
18
Wind Variable Wind from NW

Today
High -- | Low -- °F
--% Chance of Precip.
Yesterday
High -- | Low -- °F
Precip. -- in
7:11 AM 6:55 PM
Waxing Crescent, 41% visible
Pressure 29.65 in
Visibility 10.0 miles
Clouds Few 5000 ft
Mostly Cloudy 7000 ft
Mostly Cloudy 9000 ft
Dew Point 40 °F
Humidity 43%
Rainfall 0.00 in
Snow Depth 0 in , 0 in , 0 in
UV 1 out of 12
Pollen 3.90 out of 12
Air Quality Not available.
Flu Activity Not available.
METAR KBIL 302253Z 31016KT 10SM FEW050 BKN070 BKN090 17/04 A2968 RMK AO2 PK WND 31026/2235 RAE08 SLP039 VIRGA SHRA DSNT SE P0000 T01720044

More Conditions Fewer Conditions

Pressure 29.65 in
Visibility 10.0 miles
Clouds Few 5000 ft
Mostly Cloudy 7000 ft
Mostly Cloudy 9000 ft
Dew Point 40 °F
Humidity 43%
Rainfall 0.00 in
Snow Depth 0 in , 0 in , 0 in
UV 1 out of 12
Pollen 3.90 out of 12
Air Quality Not available.
Flu Activity Not available.
METAR KBIL 302253Z 31016KT 10SM FEW050 BKN070 BKN090 17/04 A2968 RMK AO2 PK WND 31026/2235 RAE08 SLP039 VIRGA SHRA DSNT SE P0000 T01720044

More Conditions Fewer Conditions

10-Day Weather Forecast

Almanac

Astronomy

Sep. 30, 2014 Rise Set
Actual Time 7:11 AM MDT 6:55 PM MDT
Civil Twilight 6:41 AM MDT 7:25 PM MDT
Nautical Twilight 6:06 AM MDT 7:59 PM MDT
Astronomical Twilight 5:31 AM MDT 8:35 PM MDT
Moon 1:36 PM MDT 11:15 PM MDT
Length of Visible Light 12h 44m
Length of Day
11h 44m
Tomorrow will be 3m 11s shorter.
Waxing Crescent, 41% of the Moon is Illuminated
Today
Waxing Crescent
Oct 1
First Quarter
Oct 8
Full
Oct 15
Last Quarter
Oct 23
New

Today's Extremes

State Highs State Lows

Community

WunderPhotos

Upload Photos

1,757,768 photos uploaded!

Nearby

Snow Depth

Station Depth Elevation
Brackett Creek 0 in 7320 ft
Daisy Peak 0 in 7600 ft
Many Glacier 0 in 4900 ft
Stuart Mountain 0 in 7400 ft
Short Creek 0 in 7000 ft

Earthquake Activity

City Distance Mag. Time & Date
No recent earthquake activity has been reported nearby.
Minimum magnitude displayed is 2.5.

Coastal Water Temperatures

Place Temperature
No Stations Reporting

Nearby Weather Stations